sensor_id;sensor_type;location;lat;lon;timestamp;pressure;altitude;pressure_sealevel;temperature;humidity
42591;BME280;28218;53.342;-6.216;2022-11-15T00:01:15;98569.66;;;12.17;100.00
42591;BME280;28218;53.342;-6.216;2022-11-15T00:03:46;98562.31;;;12.19;100.00
42591;BME280;28218;53.342;-6.216;2022-11-15T00:06:18;98555.41;;;12.18;100.00
42591;BME280;28218;53.342;-6.216;2022-11-15T00:08:47;98526.97;;;12.20;100.00
42591;BME280;28218;53.342;-6.216;2022-11-15T00:11:15;98544.16;;;12.22;100.00
42591;BME280;28218;53.342;-6.216;2022-11-15T00:13:44;98530.97;;;12.22;100.00
42591;BME280;28218;53.342;-6.216;2022-11-15T00:16:12;98511.22;;;12.25;100.00
42591;BME280;28218;53.342;-6.216;2022-11-15T00:18:40;98513.84;;;12.25;100.00
42591;BME280;28218;53.342;-6.216;2022-11-15T00:21:17;98501.22;;;12.27;100.00
42591;BME280;28218;53.342;-6.216;2022-11-15T00:23:46;98489.06;;;12.26;100.00
42591;BME280;28218;53.342;-6.216;2022-11-15T00:26:15;98478.50;;;12.26;100.00
42591;BME280;28218;53.342;-6.216;2022-11-15T00:28:44;98465.06;;;12.27;100.00
42591;BME280;28218;53.342;-6.216;2022-11-15T00:31:13;98446.81;;;12.26;100.00
42591;BME280;28218;53.342;-6.216;2022-11-15T00:33:43;98431.56;;;12.28;100.00
42591;BME280;28218;53.342;-6.216;2022-11-15T00:36:12;98422.34;;;12.31;100.00
42591;BME280;28218;53.342;-6.216;2022-11-15T00:38:42;98409.69;;;12.33;100.00
42591;BME280;28218;53.342;-6.216;2022-11-15T00:41:10;98413.97;;;12.34;100.00
42591;BME280;28218;53.342;-6.216;2022-11-15T00:43:38;98399.47;;;12.36;100.00
42591;BME280;28218;53.342;-6.216;2022-11-15T00:46:10;98402.69;;;12.38;100.00
42591;BME280;28218;53.342;-6.216;2022-11-15T00:48:38;98390.50;;;12.37;100.00
42591;BME280;28218;53.342;-6.216;2022-11-15T00:51:06;98387.41;;;12.40;100.00
42591;BME280;28218;53.342;-6.216;2022-11-15T00:53:34;98367.31;;;12.39;100.00
42591;BME280;28218;53.342;-6.216;2022-11-15T00:56:04;98354.66;;;12.41;100.00
42591;BME280;28218;53.342;-6.216;2022-11-15T00:58:33;98349.97;;;12.43;100.00
42591;BME280;28218;53.342;-6.216;2022-11-15T01:01:13;98334.91;;;12.44;100.00
42591;BME280;28218;53.342;-6.216;2022-11-15T01:03:41;98333.63;;;12.46;100.00
42591;BME280;28218;53.342;-6.216;2022-11-15T01:06:10;98335.47;;;12.46;100.00
42591;BME280;28218;53.342;-6.216;2022-11-15T01:08:38;98327.41;;;12.52;100.00
42591;BME280;28218;53.342;-6.216;2022-11-15T01:11:09;98328.75;;;12.55;100.00
42591;BME280;28218;53.342;-6.216;2022-11-15T01:13:39;98325.31;;;12.54;100.00
42591;BME280;28218;53.342;-6.216;2022-11-15T01:16:09;98322.19;;;12.58;100.00
42591;BME280;28218;53.342;-6.216;2022-11-15T01:18:37;98320.34;;;12.58;100.00
42591;BME280;28218;53.342;-6.216;2022-11-15T01:21:07;98303.00;;;12.62;100.00
42591;BME280;28218;53.342;-6.216;2022-11-15T01:23:36;98296.91;;;12.62;100.00
42591;BME280;28218;53.342;-6.216;2022-11-15T01:26:06;98299.56;;;12.62;100.00
42591;BME280;28218;53.342;-6.216;2022-11-15T01:28:38;98285.28;;;12.63;100.00
42591;BME280;28218;53.342;-6.216;2022-11-15T01:31:11;98277.38;;;12.63;100.00
42591;BME280;28218;53.342;-6.216;2022-11-15T01:33:40;98270.78;;;12.65;100.00
42591;BME280;28218;53.342;-6.216;2022-11-15T01:36:11;98254.16;;;12.65;100.00
42591;BME280;28218;53.342;-6.216;2022-11-15T01:38:40;98253.13;;;12.66;100.00
42591;BME280;28218;53.342;-6.216;2022-11-15T01:41:14;98231.88;;;12.61;100.00
42591;BME280;28218;53.342;-6.216;2022-11-15T01:43:46;98237.50;;;12.64;100.00
42591;BME280;28218;53.342;-6.216;2022-11-15T01:46:23;98222.44;;;12.65;100.00
42591;BME280;28218;53.342;-6.216;2022-11-15T01:48:54;98229.03;;;12.62;100.00
42591;BME280;28218;53.342;-6.216;2022-11-15T01:51:26;98223.25;;;12.65;100.00
42591;BME280;28218;53.342;-6.216;2022-11-15T01:54:03;98224.59;;;12.68;100.00
42591;BME280;28218;53.342;-6.216;2022-11-15T01:56:40;98212.19;;;12.68;100.00
42591;BME280;28218;53.342;-6.216;2022-11-15T01:59:13;98219.06;;;12.69;100.00
42591;BME280;28218;53.342;-6.216;2022-11-15T02:01:41;98205.31;;;12.67;100.00
42591;BME280;28218;53.342;-6.216;2022-11-15T02:04:13;98186.56;;;12.69;100.00
42591;BME280;28218;53.342;-6.216;2022-11-15T02:06:44;98149.59;;;12.69;100.00
42591;BME280;28218;53.342;-6.216;2022-11-15T02:09:15;98244.47;;;12.53;100.00
42591;BME280;28218;53.342;-6.216;2022-11-15T02:11:46;98256.88;;;12.36;100.00
42591;BME280;28218;53.342;-6.216;2022-11-15T02:14:18;98268.69;;;12.17;100.00
42591;BME280;28218;53.342;-6.216;2022-11-15T02:16:54;98280.69;;;12.08;100.00
42591;BME280;28218;53.342;-6.216;2022-11-15T02:22:31;98300.28;;;11.83;100.00
42591;BME280;28218;53.342;-6.216;2022-11-15T02:25:09;98302.22;;;11.76;100.00
42591;BME280;28218;53.342;-6.216;2022-11-15T02:28:10;98309.03;;;11.72;100.00
42591;BME280;28218;53.342;-6.216;2022-11-15T02:30:45;98296.28;;;11.69;100.00
42591;BME280;28218;53.342;-6.216;2022-11-15T02:33:26;98300.34;;;11.60;100.00
42591;BME280;28218;53.342;-6.216;2022-11-15T02:35:59;98306.56;;;11.54;100.00
42591;BME280;28218;53.342;-6.216;2022-11-15T02:38:34;98305.66;;;11.48;100.00
42591;BME280;28218;53.342;-6.216;2022-11-15T02:41:09;98326.03;;;11.52;100.00
42591;BME280;28218;53.342;-6.216;2022-11-15T02:43:43;98336.25;;;11.49;100.00
42591;BME280;28218;53.342;-6.216;2022-11-15T02:46:32;98352.88;;;11.49;100.00
42591;BME280;28218;53.342;-6.216;2022-11-15T02:49:18;98362.84;;;11.47;100.00
42591;BME280;28218;53.342;-6.216;2022-11-15T02:51:48;98381.88;;;11.49;100.00
42591;BME280;28218;53.342;-6.216;2022-11-15T02:54:20;98386.56;;;11.47;100.00
42591;BME280;28218;53.342;-6.216;2022-11-15T02:56:51;98406.66;;;11.48;100.00
42591;BME280;28218;53.342;-6.216;2022-11-15T03:02:32;98440.13;;;11.36;100.00
42591;BME280;28218;53.342;-6.216;2022-11-15T03:05:10;98444.16;;;11.39;100.00
42591;BME280;28218;53.342;-6.216;2022-11-15T03:07:50;98455.94;;;11.36;100.00
42591;BME280;28218;53.342;-6.216;2022-11-15T03:10:34;98467.53;;;11.35;100.00
42591;BME280;28218;53.342;-6.216;2022-11-15T03:13:12;98472.44;;;11.32;100.00
42591;BME280;28218;53.342;-6.216;2022-11-15T03:15:49;98478.28;;;11.34;100.00
42591;BME280;28218;53.342;-6.216;2022-11-15T03:18:28;98502.13;;;11.27;100.00
42591;BME280;28218;53.342;-6.216;2022-11-15T03:21:00;98505.19;;;11.24;100.00
42591;BME280;28218;53.342;-6.216;2022-11-15T03:23:30;98505.00;;;11.25;100.00
42591;BME280;28218;53.342;-6.216;2022-11-15T03:26:00;98517.59;;;11.23;100.00
42591;BME280;28218;53.342;-6.216;2022-11-15T03:28:34;98519.66;;;11.21;100.00
42591;BME280;28218;53.342;-6.216;2022-11-15T03:31:05;98518.25;;;11.19;100.00
42591;BME280;28218;53.342;-6.216;2022-11-15T03:33:51;98535.53;;;11.15;100.00
42591;BME280;28218;53.342;-6.216;2022-11-15T03:36:22;98544.97;;;11.11;100.00
42591;BME280;28218;53.342;-6.216;2022-11-15T03:38:54;98553.88;;;11.10;100.00
42591;BME280;28218;53.342;-6.216;2022-11-15T03:41:29;98571.00;;;11.00;100.00
42591;BME280;28218;53.342;-6.216;2022-11-15T03:44:05;98583.19;;;11.02;100.00
42591;BME280;28218;53.342;-6.216;2022-11-15T03:46:40;98575.84;;;11.04;100.00
42591;BME280;28218;53.342;-6.216;2022-11-15T03:49:17;98582.16;;;11.03;100.00
42591;BME280;28218;53.342;-6.216;2022-11-15T03:51:47;98581.78;;;10.99;100.00
42591;BME280;28218;53.342;-6.216;2022-11-15T03:54:16;98575.94;;;10.97;100.00
42591;BME280;28218;53.342;-6.216;2022-11-15T03:56:44;98590.97;;;10.96;100.00
42591;BME280;28218;53.342;-6.216;2022-11-15T03:59:12;98586.50;;;10.97;100.00
42591;BME280;28218;53.342;-6.216;2022-11-15T04:01:40;98593.22;;;10.93;100.00
42591;BME280;28218;53.342;-6.216;2022-11-15T04:04:09;98593.78;;;10.95;100.00
42591;BME280;28218;53.342;-6.216;2022-11-15T04:06:38;98594.59;;;10.95;100.00
42591;BME280;28218;53.342;-6.216;2022-11-15T04:09:07;98596.22;;;10.96;100.00
42591;BME280;28218;53.342;-6.216;2022-11-15T04:11:35;98597.69;;;10.92;100.00
42591;BME280;28218;53.342;-6.216;2022-11-15T04:14:03;98596.28;;;10.90;100.00
42591;BME280;28218;53.342;-6.216;2022-11-15T04:16:31;98601.44;;;10.85;100.00
42591;BME280;28218;53.342;-6.216;2022-11-15T04:18:59;98620.53;;;10.80;100.00
42591;BME280;28218;53.342;-6.216;2022-11-15T04:21:46;98626.22;;;10.77;100.00
42591;BME280;28218;53.342;-6.216;2022-11-15T04:24:32;98631.97;;;10.74;100.00
42591;BME280;28218;53.342;-6.216;2022-11-15T04:27:00;98635.63;;;10.73;100.00
42591;BME280;28218;53.342;-6.216;2022-11-15T04:29:29;98629.97;;;10.69;100.00
42591;BME280;28218;53.342;-6.216;2022-11-15T04:32:06;98628.53;;;10.73;100.00
42591;BME280;28218;53.342;-6.216;2022-11-15T04:34:34;98638.25;;;10.73;100.00
42591;BME280;28218;53.342;-6.216;2022-11-15T04:37:04;98643.28;;;10.74;100.00
42591;BME280;28218;53.342;-6.216;2022-11-15T04:39:42;98649.59;;;10.73;100.00
42591;BME280;28218;53.342;-6.216;2022-11-15T04:42:11;98665.41;;;10.73;100.00
42591;BME280;28218;53.342;-6.216;2022-11-15T04:44:39;98673.72;;;10.70;100.00
42591;BME280;28218;53.342;-6.216;2022-11-15T04:47:07;98680.81;;;10.70;100.00
42591;BME280;28218;53.342;-6.216;2022-11-15T04:49:35;98672.31;;;10.68;100.00
42591;BME280;28218;53.342;-6.216;2022-11-15T04:52:05;98669.91;;;10.66;100.00
42591;BME280;28218;53.342;-6.216;2022-11-15T04:54:33;98670.38;;;10.63;100.00
42591;BME280;28218;53.342;-6.216;2022-11-15T04:57:01;98672.41;;;10.61;100.00
42591;BME280;28218;53.342;-6.216;2022-11-15T04:59:29;98686.59;;;10.60;100.00
42591;BME280;28218;53.342;-6.216;2022-11-15T05:01:57;98690.84;;;10.61;100.00
42591;BME280;28218;53.342;-6.216;2022-11-15T05:04:26;98682.13;;;10.61;100.00
42591;BME280;28218;53.342;-6.216;2022-11-15T05:06:53;98690.47;;;10.58;100.00
42591;BME280;28218;53.342;-6.216;2022-11-15T05:09:22;98692.91;;;10.59;100.00
42591;BME280;28218;53.342;-6.216;2022-11-15T05:11:50;98697.13;;;10.60;100.00
42591;BME280;28218;53.342;-6.216;2022-11-15T05:14:19;98707.06;;;10.58;100.00
42591;BME280;28218;53.342;-6.216;2022-11-15T05:16:47;98704.09;;;10.55;100.00
42591;BME280;28218;53.342;-6.216;2022-11-15T05:19:15;98705.91;;;10.54;100.00
42591;BME280;28218;53.342;-6.216;2022-11-15T05:21:43;98701.22;;;10.56;100.00
42591;BME280;28218;53.342;-6.216;2022-11-15T05:24:12;98707.91;;;10.59;100.00
42591;BME280;28218;53.342;-6.216;2022-11-15T05:26:41;98728.72;;;10.60;100.00
42591;BME280;28218;53.342;-6.216;2022-11-15T05:29:09;98716.38;;;10.61;100.00
42591;BME280;28218;53.342;-6.216;2022-11-15T05:31:39;98717.16;;;10.61;100.00
42591;BME280;28218;53.342;-6.216;2022-11-15T05:34:09;98725.88;;;10.62;100.00
42591;BME280;28218;53.342;-6.216;2022-11-15T05:36:40;98734.22;;;10.59;100.00
42591;BME280;28218;53.342;-6.216;2022-11-15T05:39:09;98746.00;;;10.56;100.00
42591;BME280;28218;53.342;-6.216;2022-11-15T05:41:41;98749.84;;;10.54;100.00
42591;BME280;28218;53.342;-6.216;2022-11-15T05:44:11;98755.94;;;10.54;100.00
42591;BME280;28218;53.342;-6.216;2022-11-15T05:46:42;98763.00;;;10.54;100.00
42591;BME280;28218;53.342;-6.216;2022-11-15T05:49:13;98784.91;;;10.54;100.00
42591;BME280;28218;53.342;-6.216;2022-11-15T05:51:43;98781.44;;;10.54;100.00
42591;BME280;28218;53.342;-6.216;2022-11-15T05:54:14;98785.09;;;10.53;100.00
42591;BME280;28218;53.342;-6.216;2022-11-15T05:56:44;98777.22;;;10.53;100.00
42591;BME280;28218;53.342;-6.216;2022-11-15T05:59:13;98773.19;;;10.50;100.00
42591;BME280;28218;53.342;-6.216;2022-11-15T06:01:41;98764.50;;;10.49;100.00
42591;BME280;28218;53.342;-6.216;2022-11-15T06:04:10;98763.47;;;10.51;100.00
42591;BME280;28218;53.342;-6.216;2022-11-15T06:06:38;98773.59;;;10.47;100.00
42591;BME280;28218;53.342;-6.216;2022-11-15T06:09:06;98787.56;;;10.47;100.00
42591;BME280;28218;53.342;-6.216;2022-11-15T06:11:34;98812.09;;;10.48;100.00
42591;BME280;28218;53.342;-6.216;2022-11-15T06:14:04;98819.41;;;10.46;100.00
42591;BME280;28218;53.342;-6.216;2022-11-15T06:16:32;98813.16;;;10.40;100.00
42591;BME280;28218;53.342;-6.216;2022-11-15T06:19:01;98793.28;;;10.44;100.00
42591;BME280;28218;53.342;-6.216;2022-11-15T06:21:29;98796.91;;;10.43;100.00
42591;BME280;28218;53.342;-6.216;2022-11-15T06:23:57;98792.69;;;10.42;100.00
42591;BME280;28218;53.342;-6.216;2022-11-15T06:26:25;98792.09;;;10.40;100.00
42591;BME280;28218;53.342;-6.216;2022-11-15T06:28:53;98791.66;;;10.43;100.00
42591;BME280;28218;53.342;-6.216;2022-11-15T06:31:23;98783.19;;;10.41;100.00
42591;BME280;28218;53.342;-6.216;2022-11-15T06:33:51;98794.13;;;10.38;100.00
42591;BME280;28218;53.342;-6.216;2022-11-15T06:36:19;98805.91;;;10.36;100.00
42591;BME280;28218;53.342;-6.216;2022-11-15T06:38:47;98800.66;;;10.36;100.00
42591;BME280;28218;53.342;-6.216;2022-11-15T06:41:15;98810.56;;;10.34;100.00
42591;BME280;28218;53.342;-6.216;2022-11-15T06:43:44;98789.72;;;10.32;100.00
42591;BME280;28218;53.342;-6.216;2022-11-15T06:46:12;98805.50;;;10.32;100.00
42591;BME280;28218;53.342;-6.216;2022-11-15T06:48:42;98811.00;;;10.31;100.00
42591;BME280;28218;53.342;-6.216;2022-11-15T06:51:10;98836.50;;;10.30;100.00
42591;BME280;28218;53.342;-6.216;2022-11-15T06:53:38;98831.69;;;10.27;100.00
42591;BME280;28218;53.342;-6.216;2022-11-15T06:56:07;98829.84;;;10.28;100.00
42591;BME280;28218;53.342;-6.216;2022-11-15T06:58:36;98838.31;;;10.30;100.00
42591;BME280;28218;53.342;-6.216;2022-11-15T07:01:06;98828.81;;;10.29;100.00
42591;BME280;28218;53.342;-6.216;2022-11-15T07:03:35;98839.56;;;10.27;100.00
42591;BME280;28218;53.342;-6.216;2022-11-15T07:06:05;98846.66;;;10.27;100.00
42591;BME280;28218;53.342;-6.216;2022-11-15T07:08:34;98847.66;;;10.26;100.00
42591;BME280;28218;53.342;-6.216;2022-11-15T07:11:04;98852.94;;;10.26;100.00
42591;BME280;28218;53.342;-6.216;2022-11-15T07:13:33;98867.91;;;10.25;100.00
42591;BME280;28218;53.342;-6.216;2022-11-15T07:16:03;98876.41;;;10.20;100.00
42591;BME280;28218;53.342;-6.216;2022-11-15T07:18:34;98879.88;;;10.21;100.00
42591;BME280;28218;53.342;-6.216;2022-11-15T07:21:05;98873.78;;;10.20;100.00
42591;BME280;28218;53.342;-6.216;2022-11-15T07:23:35;98861.44;;;10.21;100.00
42591;BME280;28218;53.342;-6.216;2022-11-15T07:26:04;98867.94;;;10.18;100.00
42591;BME280;28218;53.342;-6.216;2022-11-15T07:28:32;98862.28;;;10.15;100.00
42591;BME280;28218;53.342;-6.216;2022-11-15T07:31:03;98866.72;;;10.14;100.00
42591;BME280;28218;53.342;-6.216;2022-11-15T07:33:32;98869.16;;;10.16;100.00
42591;BME280;28218;53.342;-6.216;2022-11-15T07:36:01;98870.59;;;10.12;100.00
42591;BME280;28218;53.342;-6.216;2022-11-15T07:38:31;98871.41;;;10.12;100.00
42591;BME280;28218;53.342;-6.216;2022-11-15T07:41:07;98860.50;;;10.09;100.00
42591;BME280;28218;53.342;-6.216;2022-11-15T07:43:36;98861.91;;;10.05;100.00
42591;BME280;28218;53.342;-6.216;2022-11-15T07:46:05;98867.00;;;9.99;100.00
42591;BME280;28218;53.342;-6.216;2022-11-15T07:48:36;98867.63;;;9.95;100.00
42591;BME280;28218;53.342;-6.216;2022-11-15T07:51:12;98869.28;;;9.89;100.00
42591;BME280;28218;53.342;-6.216;2022-11-15T07:53:43;98861.22;;;9.84;100.00
42591;BME280;28218;53.342;-6.216;2022-11-15T07:56:11;98862.63;;;9.80;100.00
42591;BME280;28218;53.342;-6.216;2022-11-15T07:58:40;98863.84;;;9.78;100.00
42591;BME280;28218;53.342;-6.216;2022-11-15T08:01:09;98865.50;;;9.72;100.00
42591;BME280;28218;53.342;-6.216;2022-11-15T08:03:38;98862.88;;;9.72;100.00
42591;BME280;28218;53.342;-6.216;2022-11-15T08:06:06;98868.53;;;9.69;100.00
42591;BME280;28218;53.342;-6.216;2022-11-15T08:08:35;98875.44;;;9.63;100.00
42591;BME280;28218;53.342;-6.216;2022-11-15T08:11:04;98876.66;;;9.61;100.00
42591;BME280;28218;53.342;-6.216;2022-11-15T08:13:32;98884.56;;;9.61;100.00
42591;BME280;28218;53.342;-6.216;2022-11-15T08:16:02;98890.00;;;9.59;100.00
42591;BME280;28218;53.342;-6.216;2022-11-15T08:18:32;98889.81;;;9.61;100.00
42591;BME280;28218;53.342;-6.216;2022-11-15T08:21:01;98883.94;;;9.59;100.00
42591;BME280;28218;53.342;-6.216;2022-11-15T08:23:29;98877.28;;;9.56;100.00
42591;BME280;28218;53.342;-6.216;2022-11-15T08:26:00;98877.91;;;9.52;100.00
42591;BME280;28218;53.342;-6.216;2022-11-15T08:28:30;98883.16;;;9.52;100.00
42591;BME280;28218;53.342;-6.216;2022-11-15T08:30:59;98898.13;;;9.51;100.00
42591;BME280;28218;53.342;-6.216;2022-11-15T08:33:28;98893.69;;;9.52;100.00
42591;BME280;28218;53.342;-6.216;2022-11-15T08:35:57;98910.03;;;9.54;100.00
42591;BME280;28218;53.342;-6.216;2022-11-15T08:38:26;98918.94;;;9.53;100.00
42591;BME280;28218;53.342;-6.216;2022-11-15T08:41:00;98928.44;;;9.54;100.00
42591;BME280;28218;53.342;-6.216;2022-11-15T08:43:31;98925.00;;;9.53;100.00
42591;BME280;28218;53.342;-6.216;2022-11-15T08:46:00;98921.19;;;9.56;100.00
42591;BME280;28218;53.342;-6.216;2022-11-15T08:48:29;98920.16;;;9.57;100.00
42591;BME280;28218;53.342;-6.216;2022-11-15T08:50:58;98912.06;;;9.58;100.00
42591;BME280;28218;53.342;-6.216;2022-11-15T08:53:26;98907.19;;;9.62;100.00
42591;BME280;28218;53.342;-6.216;2022-11-15T08:55:54;98913.03;;;9.64;100.00
42591;BME280;28218;53.342;-6.216;2022-11-15T08:58:22;98916.28;;;9.66;100.00
42591;BME280;28218;53.342;-6.216;2022-11-15T09:00:52;98914.88;;;9.70;100.00
42591;BME280;28218;53.342;-6.216;2022-11-15T09:03:20;98921.13;;;9.76;100.00
42591;BME280;28218;53.342;-6.216;2022-11-15T09:05:48;98923.13;;;9.80;100.00
42591;BME280;28218;53.342;-6.216;2022-11-15T09:08:21;98920.06;;;9.83;100.00
42591;BME280;28218;53.342;-6.216;2022-11-15T09:11:10;98914.41;;;9.86;100.00
42591;BME280;28218;53.342;-6.216;2022-11-15T09:13:39;98904.91;;;9.85;100.00
42591;BME280;28218;53.342;-6.216;2022-11-15T09:16:09;98901.06;;;9.81;100.00
42591;BME280;28218;53.342;-6.216;2022-11-15T09:18:38;98896.03;;;9.80;100.00
42591;BME280;28218;53.342;-6.216;2022-11-15T09:21:07;98891.38;;;9.75;100.00
42591;BME280;28218;53.342;-6.216;2022-11-15T09:23:36;98891.97;;;9.77;100.00
42591;BME280;28218;53.342;-6.216;2022-11-15T09:26:04;98898.84;;;9.78;100.00
42591;BME280;28218;53.342;-6.216;2022-11-15T09:28:33;98898.03;;;9.78;100.00
42591;BME280;28218;53.342;-6.216;2022-11-15T09:31:04;98888.13;;;9.80;100.00
42591;BME280;28218;53.342;-6.216;2022-11-15T09:33:35;98888.72;;;9.82;100.00
42591;BME280;28218;53.342;-6.216;2022-11-15T09:36:05;98894.78;;;9.89;100.00
42591;BME280;28218;53.342;-6.216;2022-11-15T09:38:33;98891.53;;;9.93;100.00
42591;BME280;28218;53.342;-6.216;2022-11-15T09:41:30;98886.44;;;9.98;100.00
42591;BME280;28218;53.342;-6.216;2022-11-15T09:44:13;98883.78;;;10.05;100.00
42591;BME280;28218;53.342;-6.216;2022-11-15T09:46:59;98888.19;;;10.11;100.00
42591;BME280;28218;53.342;-6.216;2022-11-15T09:49:32;98885.78;;;10.16;100.00
42591;BME280;28218;53.342;-6.216;2022-11-15T09:52:00;98884.72;;;10.24;100.00
42591;BME280;28218;53.342;-6.216;2022-11-15T09:54:31;98886.72;;;10.35;100.00
42591;BME280;28218;53.342;-6.216;2022-11-15T09:57:27;98885.81;;;10.48;100.00
42591;BME280;28218;53.342;-6.216;2022-11-15T10:00:04;98885.31;;;10.64;100.00
42591;BME280;28218;53.342;-6.216;2022-11-15T10:03:06;98869.41;;;10.78;100.00
42591;BME280;28218;53.342;-6.216;2022-11-15T10:05:39;98866.72;;;10.84;100.00
42591;BME280;28218;53.342;-6.216;2022-11-15T10:08:30;98867.47;;;10.91;100.00
42591;BME280;28218;53.342;-6.216;2022-11-15T10:11:03;98878.34;;;11.02;100.00
42591;BME280;28218;53.342;-6.216;2022-11-15T10:13:55;98882.25;;;11.17;100.00
42591;BME280;28218;53.342;-6.216;2022-11-15T10:19:35;98899.44;;;11.45;100.00
42591;BME280;28218;53.342;-6.216;2022-11-15T10:22:19;98890.41;;;11.52;100.00
42591;BME280;28218;53.342;-6.216;2022-11-15T10:24:50;98883.03;;;11.61;100.00
42591;BME280;28218;53.342;-6.216;2022-11-15T10:27:20;98876.91;;;11.67;100.00
42591;BME280;28218;53.342;-6.216;2022-11-15T10:29:50;98874.41;;;11.72;100.00
42591;BME280;28218;53.342;-6.216;2022-11-15T10:32:19;98868.47;;;11.77;100.00
42591;BME280;28218;53.342;-6.216;2022-11-15T10:34:48;98871.03;;;11.84;100.00
42591;BME280;28218;53.342;-6.216;2022-11-15T10:37:29;98875.09;;;11.86;100.00
42591;BME280;28218;53.342;-6.216;2022-11-15T10:40:05;98871.78;;;11.91;100.00
42591;BME280;28218;53.342;-6.216;2022-11-15T10:42:33;98872.25;;;11.99;100.00
42591;BME280;28218;53.342;-6.216;2022-11-15T10:45:02;98860.16;;;12.10;100.00
42591;BME280;28218;53.342;-6.216;2022-11-15T10:47:31;98866.50;;;12.21;100.00
42591;BME280;28218;53.342;-6.216;2022-11-15T10:50:07;98861.72;;;12.30;100.00
42591;BME280;28218;53.342;-6.216;2022-11-15T10:52:45;98875.19;;;12.40;100.00
42591;BME280;28218;53.342;-6.216;2022-11-15T10:55:24;98869.00;;;12.46;100.00
42591;BME280;28218;53.342;-6.216;2022-11-15T10:58:02;98866.84;;;12.54;100.00
42591;BME280;28218;53.342;-6.216;2022-11-15T11:00:36;98868.59;;;12.61;100.00
42591;BME280;28218;53.342;-6.216;2022-11-15T11:03:21;98869.53;;;12.66;100.00
42591;BME280;28218;53.342;-6.216;2022-11-15T11:06:03;98869.97;;;12.63;100.00
42591;BME280;28218;53.342;-6.216;2022-11-15T11:08:33;98882.16;;;12.64;100.00
42591;BME280;28218;53.342;-6.216;2022-11-15T11:11:03;98887.56;;;12.69;100.00
42591;BME280;28218;53.342;-6.216;2022-11-15T11:13:33;98883.19;;;12.75;100.00
42591;BME280;28218;53.342;-6.216;2022-11-15T11:16:36;98890.13;;;12.76;100.00
42591;BME280;28218;53.342;-6.216;2022-11-15T11:19:19;98897.13;;;12.82;100.00
42591;BME280;28218;53.342;-6.216;2022-11-15T11:21:58;98893.25;;;12.85;100.00
42591;BME280;28218;53.342;-6.216;2022-11-15T11:24:49;98890.44;;;12.79;100.00
42591;BME280;28218;53.342;-6.216;2022-11-15T11:27:33;98885.53;;;12.83;100.00
42591;BME280;28218;53.342;-6.216;2022-11-15T11:30:09;98885.88;;;12.87;100.00
42591;BME280;28218;53.342;-6.216;2022-11-15T11:32:49;98887.03;;;12.91;100.00
42591;BME280;28218;53.342;-6.216;2022-11-15T11:35:24;98888.88;;;12.90;100.00
42591;BME280;28218;53.342;-6.216;2022-11-15T11:38:05;98894.53;;;12.94;100.00
42591;BME280;28218;53.342;-6.216;2022-11-15T11:40:48;98894.28;;;12.95;100.00
42591;BME280;28218;53.342;-6.216;2022-11-15T11:43:27;98893.00;;;12.98;100.00
42591;BME280;28218;53.342;-6.216;2022-11-15T11:46:09;98882.69;;;12.96;100.00
42591;BME280;28218;53.342;-6.216;2022-11-15T11:48:44;98880.28;;;12.95;100.00
42591;BME280;28218;53.342;-6.216;2022-11-15T11:51:17;98867.38;;;12.98;100.00
42591;BME280;28218;53.342;-6.216;2022-11-15T11:53:52;98884.63;;;13.01;100.00
42591;BME280;28218;53.342;-6.216;2022-11-15T11:56:27;98889.56;;;12.97;100.00
42591;BME280;28218;53.342;-6.216;2022-11-15T11:59:01;98890.59;;;12.96;100.00
42591;BME280;28218;53.342;-6.216;2022-11-15T12:01:35;98886.72;;;12.99;100.00
42591;BME280;28218;53.342;-6.216;2022-11-15T12:04:09;98886.13;;;12.97;100.00
42591;BME280;28218;53.342;-6.216;2022-11-15T12:06:44;98883.84;;;13.00;100.00
42591;BME280;28218;53.342;-6.216;2022-11-15T12:09:17;98889.34;;;12.99;100.00
42591;BME280;28218;53.342;-6.216;2022-11-15T12:11:54;98888.88;;;13.02;100.00
42591;BME280;28218;53.342;-6.216;2022-11-15T12:14:29;98901.19;;;12.96;100.00
42591;BME280;28218;53.342;-6.216;2022-11-15T12:17:00;98901.19;;;12.96;100.00
42591;BME280;28218;53.342;-6.216;2022-11-15T12:19:29;98905.22;;;12.99;100.00
42591;BME280;28218;53.342;-6.216;2022-11-15T12:22:01;98916.25;;;12.96;100.00
42591;BME280;28218;53.342;-6.216;2022-11-15T12:24:34;98910.25;;;12.89;100.00
42591;BME280;28218;53.342;-6.216;2022-11-15T12:27:14;98907.38;;;12.90;100.00
42591;BME280;28218;53.342;-6.216;2022-11-15T12:29:54;98907.84;;;12.87;100.00
42591;BME280;28218;53.342;-6.216;2022-11-15T12:32:27;98905.88;;;12.83;100.00
42591;BME280;28218;53.342;-6.216;2022-11-15T12:34:57;98913.56;;;12.84;100.00
42591;BME280;28218;53.342;-6.216;2022-11-15T12:37:54;98908.38;;;12.77;100.00
42591;BME280;28218;53.342;-6.216;2022-11-15T12:40:33;98900.22;;;12.79;100.00
42591;BME280;28218;53.342;-6.216;2022-11-15T12:46:12;98892.88;;;12.81;100.00
42591;BME280;28218;53.342;-6.216;2022-11-15T12:48:54;98896.09;;;12.83;100.00
42591;BME280;28218;53.342;-6.216;2022-11-15T12:52:03;98889.22;;;12.82;100.00
42591;BME280;28218;53.342;-6.216;2022-11-15T12:54:57;98888.75;;;12.85;100.00
42591;BME280;28218;53.342;-6.216;2022-11-15T12:57:31;98895.66;;;12.86;100.00
42591;BME280;28218;53.342;-6.216;2022-11-15T13:00:01;98887.72;;;12.86;100.00
42591;BME280;28218;53.342;-6.216;2022-11-15T13:02:34;98897.69;;;12.84;100.00
42591;BME280;28218;53.342;-6.216;2022-11-15T13:05:53;98895.28;;;12.83;100.00
42591;BME280;28218;53.342;-6.216;2022-11-15T13:08:40;98891.03;;;12.82;100.00
42591;BME280;28218;53.342;-6.216;2022-11-15T13:11:42;98884.38;;;12.79;100.00
42591;BME280;28218;53.342;-6.216;2022-11-15T13:14:39;98888.03;;;12.78;100.00
42591;BME280;28218;53.342;-6.216;2022-11-15T13:17:37;98876.91;;;12.76;100.00
42591;BME280;28218;53.342;-6.216;2022-11-15T13:20:18;98870.59;;;12.77;100.00
42591;BME280;28218;53.342;-6.216;2022-11-15T13:22:48;98865.28;;;12.77;100.00